createdAt,value
2022-07-28T00:00:23.992Z,99970.97
2022-07-28T00:02:52.184Z,99959.56
2022-07-28T00:05:20.415Z,99950.91
2022-07-28T00:07:50.319Z,99951.84
2022-07-28T00:10:18.475Z,99951.88
2022-07-28T00:12:46.619Z,99945.03
2022-07-28T00:15:14.759Z,99945.13
2022-07-28T00:17:42.885Z,99946.97
2022-07-28T00:20:11.366Z,99943.50
2022-07-28T00:22:43.812Z,99963.75
2022-07-28T00:25:12.834Z,99955.13
2022-07-28T00:27:41.060Z,99951.66
2022-07-28T00:30:10.078Z,99959.63
2022-07-28T00:32:39.213Z,99957.03
2022-07-28T00:35:08.305Z,99968.44
2022-07-28T00:37:39.864Z,99970.31
2022-07-28T00:40:09.531Z,99976.59
2022-07-28T00:42:37.774Z,99970.47
2022-07-28T00:45:06.785Z,99961.88
2022-07-28T00:47:35.036Z,99969.63
2022-07-28T00:50:04.654Z,99957.28
2022-07-28T00:52:34.038Z,99954.66
2022-07-28T00:55:07.560Z,99959.22
2022-07-28T00:57:35.782Z,99950.56
2022-07-28T01:00:05.966Z,99948.91
2022-07-28T01:02:34.423Z,99957.72
2022-07-28T01:05:03.020Z,99957.63
2022-07-28T01:08:06.428Z,99945.50
2022-07-28T01:11:12.305Z,99951.53
2022-07-28T01:13:55.590Z,99952.53
2022-07-28T01:16:24.344Z,99944.56
2022-07-28T01:19:17.439Z,99946.38
2022-07-28T01:21:47.492Z,99940.28
2022-07-28T01:24:18.579Z,99938.53
2022-07-28T01:27:08.684Z,99948.28
2022-07-28T01:30:08.459Z,99940.47
2022-07-28T01:32:44.491Z,99948.53
2022-07-28T01:35:19.879Z,99953.09
2022-07-28T01:37:54.047Z,99966.25
2022-07-28T01:40:27.395Z,99965.56
2022-07-28T01:43:00.982Z,99969.03
2022-07-28T01:45:29.754Z,99968.16
2022-07-28T01:48:00.930Z,99964.84
2022-07-28T01:50:29.589Z,99962.94
2022-07-28T01:52:58.814Z,99983.19
2022-07-28T01:55:27.256Z,99974.50
2022-07-28T01:57:57.015Z,99979.78
2022-07-28T02:00:28.223Z,99977.25
2022-07-28T02:02:57.656Z,99966.69
2022-07-28T02:05:28.796Z,99968.38
2022-07-28T02:07:59.364Z,99970.19
2022-07-28T02:10:29.049Z,99976.31
2022-07-28T02:12:59.232Z,99969.38
2022-07-28T02:15:28.361Z,99967.59
2022-07-28T02:17:56.937Z,99964.16
2022-07-28T02:20:26.033Z,99980.97
2022-07-28T02:22:54.636Z,99975.75
2022-07-28T02:25:22.993Z,99963.28
2022-07-28T02:28:12.253Z,99960.56
2022-07-28T02:31:20.708Z,99957.97
2022-07-28T02:34:00.358Z,99954.53
2022-07-28T02:36:41.411Z,99957.09
2022-07-28T02:39:18.133Z,99953.81
2022-07-28T02:41:51.734Z,99959.78
2022-07-28T02:44:27.245Z,99961.72
2022-07-28T02:46:57.653Z,99958.19
2022-07-28T02:49:32.041Z,99966.94
2022-07-28T02:52:02.405Z,99966.22
2022-07-28T02:54:32.973Z,99967.97
2022-07-28T02:57:02.599Z,99967.06
2022-07-28T02:59:31.594Z,99971.50
2022-07-28T03:02:00.258Z,99974.25
2022-07-28T03:04:47.926Z,99988.41
2022-07-28T03:07:16.426Z,99995.50
2022-07-28T03:09:48.270Z,99992.88
2022-07-28T03:12:16.721Z,99980.72
2022-07-28T03:14:44.812Z,99981.56
2022-07-28T03:17:13.227Z,99979.03
2022-07-28T03:19:41.399Z,99991.41
2022-07-28T03:22:10.381Z,99996.78
2022-07-28T03:24:43.463Z,99995.03
2022-07-28T03:27:31.486Z,100017.97
2022-07-28T03:30:22.669Z,100018.97
2022-07-28T03:33:01.494Z,100013.78
2022-07-28T03:35:32.204Z,100025.25
2022-07-28T03:38:12.119Z,100023.50
2022-07-28T03:40:40.845Z,100027.13
2022-07-28T03:43:17.054Z,100035.16
2022-07-28T03:45:47.813Z,100059.81
2022-07-28T03:48:16.356Z,100059.00
2022-07-28T03:50:44.468Z,100058.16
2022-07-28T03:53:22.147Z,100049.34
2022-07-28T03:55:53.817Z,100048.44
2022-07-28T03:58:25.940Z,100056.50
2022-07-28T04:00:54.565Z,100066.19
2022-07-28T04:03:42.333Z,100051.22
2022-07-28T04:06:15.349Z,100059.19
2022-07-28T04:08:44.035Z,100064.47
2022-07-28T04:11:12.687Z,100069.78
2022-07-28T04:13:40.806Z,100076.91
2022-07-28T04:16:09.009Z,100068.09
2022-07-28T04:18:37.332Z,100077.75
2022-07-28T04:21:07.767Z,100083.06
2022-07-28T04:23:35.926Z,100098.78
2022-07-28T04:26:04.360Z,100079.50
2022-07-28T04:28:32.432Z,100098.03
2022-07-28T04:31:00.633Z,100080.38
2022-07-28T04:33:29.344Z,100089.28
2022-07-28T04:35:57.553Z,100113.03
2022-07-28T04:38:25.680Z,100106.91
2022-07-28T04:40:53.785Z,100111.25
2022-07-28T04:43:23.133Z,100120.19
2022-07-28T04:45:54.017Z,100100.66
2022-07-28T04:48:23.879Z,100098.84
2022-07-28T04:50:53.206Z,100116.53
2022-07-28T04:53:22.537Z,100120.88
2022-07-28T04:55:53.545Z,100129.72
2022-07-28T04:58:24.179Z,100145.53
2022-07-28T05:00:52.875Z,100146.44
2022-07-28T05:03:21.402Z,100158.81
2022-07-28T05:05:54.165Z,100149.09
2022-07-28T05:08:25.553Z,100180.94
2022-07-28T05:10:56.558Z,100165.16
2022-07-28T05:13:30.383Z,100166.84
2022-07-28T05:16:02.509Z,100181.69
2022-07-28T05:18:30.817Z,100190.66
2022-07-28T05:20:58.959Z,100178.06
2022-07-28T05:23:27.058Z,100199.22
2022-07-28T05:25:55.242Z,100192.19
2022-07-28T05:28:23.906Z,100175.63
2022-07-28T05:30:51.989Z,100178.03
2022-07-28T05:33:20.084Z,100180.63
2022-07-28T05:35:59.874Z,100184.94
2022-07-28T05:38:28.729Z,100197.25
2022-07-28T05:40:57.025Z,100211.28
2022-07-28T05:43:25.744Z,100240.34
2022-07-28T05:45:54.084Z,100209.47
2022-07-28T05:48:22.663Z,100230.63
2022-07-28T05:50:51.302Z,100234.22
2022-07-28T05:53:19.599Z,100242.84
2022-07-28T05:56:00.613Z,100241.06
2022-07-28T05:58:30.853Z,100229.50
2022-07-28T06:01:02.826Z,100245.34
2022-07-28T06:03:35.036Z,100245.19
2022-07-28T06:06:15.552Z,100229.25
2022-07-28T06:08:46.116Z,100259.91
2022-07-28T06:11:17.945Z,100265.97
2022-07-28T06:13:52.464Z,100272.75
2022-07-28T06:16:22.766Z,100256.94
2022-07-28T06:18:51.941Z,100275.38
2022-07-28T06:21:22.209Z,100274.44
2022-07-28T06:23:50.350Z,100275.06
2022-07-28T06:26:18.500Z,100275.81
2022-07-28T06:28:46.637Z,100263.22
2022-07-28T06:31:14.603Z,100263.97
2022-07-28T06:33:42.921Z,100295.44
2022-07-28T06:36:11.050Z,100291.44
2022-07-28T06:38:39.209Z,100282.47
2022-07-28T06:41:07.621Z,100279.25
2022-07-28T06:43:39.034Z,100272.94
2022-07-28T06:46:09.552Z,100267.59
2022-07-28T06:48:39.510Z,100270.44
2022-07-28T06:51:07.850Z,100257.13
2022-07-28T06:53:36.099Z,100258.66
2022-07-28T06:56:07.993Z,100250.38
2022-07-28T06:58:42.095Z,100252.09
2022-07-28T07:01:14.965Z,100261.13
2022-07-28T07:03:44.238Z,100219.34
2022-07-28T07:06:12.530Z,100273.94
2022-07-28T07:08:40.720Z,100277.41
2022-07-28T07:11:08.900Z,100237.91
2022-07-28T07:13:37.347Z,100226.31
2022-07-28T07:16:05.793Z,100219.88
2022-07-28T07:18:34.072Z,100217.53
2022-07-28T07:21:02.163Z,100237.75
2022-07-28T07:23:30.289Z,100229.84
2022-07-28T07:25:58.887Z,100277.59
2022-07-28T07:28:27.023Z,100251.72
2022-07-28T07:30:55.272Z,100246.50
2022-07-28T07:33:23.486Z,100247.06
2022-07-28T07:35:51.670Z,100191.03
2022-07-28T07:38:19.890Z,100242.03
2022-07-28T07:40:48.160Z,100239.75
2022-07-28T07:43:16.301Z,100245.03
2022-07-28T07:45:44.524Z,100231.34
2022-07-28T07:48:12.770Z,100198.78
2022-07-28T07:50:41.148Z,100219.28
2022-07-28T07:53:09.353Z,100211.97
2022-07-28T07:55:37.977Z,100181.75
2022-07-28T07:58:06.569Z,100178.09
2022-07-28T08:00:35.076Z,100224.53
2022-07-28T08:03:03.467Z,100212.44
2022-07-28T08:05:35.911Z,100181.91
2022-07-28T08:08:07.431Z,100187.03
2022-07-28T08:10:36.419Z,100178.59
2022-07-28T08:13:06.485Z,100175.50
2022-07-28T08:15:35.373Z,100179.91
2022-07-28T08:18:03.958Z,100204.53
2022-07-28T08:20:32.142Z,100117.38
2022-07-28T08:23:00.380Z,100192.22
2022-07-28T08:25:29.239Z,100176.56
2022-07-28T08:27:57.429Z,100211.22
2022-07-28T08:30:31.791Z,100169.72
2022-07-28T08:33:02.423Z,100141.72
2022-07-28T08:35:34.003Z,100120.38
2022-07-28T08:38:05.192Z,100085.84
2022-07-28T08:40:34.638Z,100048.22
2022-07-28T08:43:34.304Z,100146.63
2022-07-28T08:46:06.373Z,100138.31
2022-07-28T08:48:37.581Z,100130.59
2022-07-28T08:51:11.428Z,100083.50
2022-07-28T08:53:41.738Z,100067.38
2022-07-28T08:56:15.649Z,100147.22
2022-07-28T08:58:44.223Z,100047.97
2022-07-28T09:01:13.298Z,100125.78
2022-07-28T09:03:42.356Z,100096.06
2022-07-28T09:06:10.765Z,100122.44
2022-07-28T09:08:38.961Z,100121.28
2022-07-28T09:11:08.259Z,100080.81
2022-07-28T09:13:36.735Z,100010.78
2022-07-28T09:16:06.937Z,100042.91
2022-07-28T09:18:35.337Z,99981.16
2022-07-28T09:21:03.486Z,100071.41
2022-07-28T09:23:49.641Z,100020.56
2022-07-28T09:26:18.238Z,100025.88
2022-07-28T09:28:57.626Z,100047.13
2022-07-28T09:31:28.732Z,100066.56
2022-07-28T09:34:02.135Z,100038.28
2022-07-28T09:36:39.163Z,100060.63
2022-07-28T09:39:07.629Z,99985.06
2022-07-28T09:41:58.405Z,100055.13
2022-07-28T09:44:28.013Z,99993.31
2022-07-28T09:46:57.031Z,99941.28
2022-07-28T09:49:43.422Z,100002.03
2022-07-28T09:52:12.811Z,100035.69
2022-07-28T09:55:04.125Z,99962.72
2022-07-28T09:57:34.390Z,99942.59
2022-07-28T10:00:12.686Z,99913.66
2022-07-28T10:02:41.063Z,99891.09
2022-07-28T10:05:12.934Z,99912.13
2022-07-28T10:07:52.649Z,99890.47
2022-07-28T10:10:21.802Z,99876.50
2022-07-28T10:12:50.177Z,99818.81
2022-07-28T10:15:45.458Z,99788.22
2022-07-28T10:18:18.737Z,99810.56
2022-07-28T10:20:47.178Z,99862.63
2022-07-28T10:23:16.880Z,99798.59
2022-07-28T10:25:45.589Z,99800.00
2022-07-28T10:28:17.509Z,99767.91
2022-07-28T10:30:46.542Z,99800.00
2022-07-28T10:33:15.997Z,99770.28
2022-07-28T10:35:55.046Z,99776.91
2022-07-28T10:38:30.037Z,99841.16
2022-07-28T10:41:02.361Z,99894.72
2022-07-28T10:43:32.263Z,99854.06
2022-07-28T10:46:06.203Z,99843.00
2022-07-28T10:48:38.748Z,99818.19
2022-07-28T10:51:07.155Z,99844.66
2022-07-28T10:54:06.628Z,99863.47
2022-07-28T10:56:58.863Z,99804.72
2022-07-28T10:59:40.035Z,99696.28
2022-07-28T11:02:08.277Z,99716.34
2022-07-28T11:04:45.308Z,99758.22
2022-07-28T11:07:17.093Z,99772.09
2022-07-28T11:09:49.628Z,99789.50
2022-07-28T11:12:51.934Z,99660.88
2022-07-28T11:15:46.255Z,99590.22
2022-07-28T11:18:14.624Z,99679.41
2022-07-28T11:20:52.414Z,99745.94
2022-07-28T11:23:48.008Z,99693.81
2022-07-28T11:26:21.986Z,99689.69
2022-07-28T11:29:04.479Z,99663.03
2022-07-28T11:31:44.469Z,99555.63
2022-07-28T11:34:25.268Z,99554.63
2022-07-28T11:37:04.911Z,99547.09
2022-07-28T11:39:43.667Z,99543.88
2022-07-28T11:42:36.358Z,99531.38
2022-07-28T11:45:37.607Z,99537.75
2022-07-28T11:48:28.891Z,99614.34
2022-07-28T11:51:24.657Z,99515.00
2022-07-28T11:53:57.463Z,99647.16
2022-07-28T11:56:32.337Z,99498.53
2022-07-28T11:59:01.679Z,99457.34
2022-07-28T12:01:32.055Z,99566.53
2022-07-28T12:04:01.313Z,99481.25
2022-07-28T12:06:38.867Z,99437.81
2022-07-28T12:09:09.430Z,99568.66
2022-07-28T12:11:43.912Z,99379.38
2022-07-28T12:14:15.917Z,99492.06
2022-07-28T12:16:51.213Z,99513.97
2022-07-28T12:19:21.133Z,99549.19
2022-07-28T12:21:55.930Z,99498.94
2022-07-28T12:24:31.787Z,99494.00
2022-07-28T12:27:00.704Z,99429.56
2022-07-28T12:29:32.149Z,99358.72
2022-07-28T12:32:07.043Z,99240.19
2022-07-28T12:34:36.501Z,99386.94
2022-07-28T12:37:06.678Z,99384.75
2022-07-28T12:39:38.628Z,99432.50
2022-07-28T12:42:13.504Z,99451.09
2022-07-28T12:44:44.619Z,99405.78
2022-07-28T12:47:14.053Z,99319.97
2022-07-28T12:49:44.543Z,99299.72
2022-07-28T12:52:30.260Z,99194.72
2022-07-28T12:54:58.091Z,99241.13
2022-07-28T12:57:51.598Z,99219.44
2022-07-28T13:00:42.015Z,99307.97
2022-07-28T13:03:28.474Z,99315.13
2022-07-28T13:06:03.583Z,99278.66
2022-07-28T13:08:57.491Z,99256.63
2022-07-28T13:11:47.976Z,99254.59
2022-07-28T13:14:16.664Z,99290.69
2022-07-28T13:16:58.046Z,99327.06
2022-07-28T13:19:26.325Z,99268.03
2022-07-28T13:22:01.586Z,99204.91
2022-07-28T13:24:31.531Z,99143.59
2022-07-28T13:27:00.241Z,99160.53
2022-07-28T13:29:28.525Z,99178.94
2022-07-28T13:31:57.056Z,99183.69
2022-07-28T13:34:25.359Z,99148.03
2022-07-28T13:36:53.505Z,99222.28
2022-07-28T13:39:22.529Z,99213.25
2022-07-28T13:41:58.178Z,99281.78
2022-07-28T13:44:28.799Z,99315.19
2022-07-28T13:46:59.665Z,99265.31
2022-07-28T13:49:32.310Z,99244.66
2022-07-28T13:52:04.596Z,99241.34
2022-07-28T13:54:33.269Z,99164.09
2022-07-28T13:57:01.393Z,99189.25
2022-07-28T13:59:29.587Z,99162.38
2022-07-28T14:01:59.151Z,99198.75
2022-07-28T14:04:27.925Z,99196.13
2022-07-28T14:06:55.847Z,99221.16
2022-07-28T14:09:23.823Z,99152.34
2022-07-28T14:11:53.458Z,99114.16
2022-07-28T14:14:25.302Z,99134.13
2022-07-28T14:16:55.226Z,99129.94
2022-07-28T14:19:39.487Z,99116.47
2022-07-28T14:22:13.372Z,99204.47
2022-07-28T14:24:42.865Z,99211.41
2022-07-28T14:27:11.394Z,99182.34
2022-07-28T14:29:40.007Z,99150.34
2022-07-28T14:32:07.933Z,99126.56
2022-07-28T14:34:39.891Z,99152.69
2022-07-28T14:37:09.191Z,99152.13
2022-07-28T14:39:38.437Z,99171.56
2022-07-28T14:42:07.716Z,99133.94
2022-07-28T14:44:35.836Z,99181.00
2022-07-28T14:47:04.767Z,99203.59
2022-07-28T14:49:33.689Z,99176.09
2022-07-28T14:52:02.248Z,99156.66
2022-07-28T14:54:30.526Z,99216.66
2022-07-28T14:56:58.721Z,99223.84
2022-07-28T14:59:26.921Z,99271.72
2022-07-28T15:01:54.909Z,99262.41
2022-07-28T15:04:23.297Z,99168.81
2022-07-28T15:06:51.461Z,99163.38
2022-07-28T15:09:19.760Z,99178.03
2022-07-28T15:11:47.806Z,99151.63
2022-07-28T15:14:16.616Z,99155.91
2022-07-28T15:16:49.549Z,99197.56
2022-07-28T15:19:17.472Z,99231.50
2022-07-28T15:21:47.335Z,99168.53
2022-07-28T15:24:16.997Z,99159.38
2022-07-28T15:26:45.209Z,99139.44
2022-07-28T15:29:13.030Z,99161.09
2022-07-28T15:31:45.192Z,99127.34
2022-07-28T15:34:13.610Z,99149.47
2022-07-28T15:36:41.869Z,99120.75
2022-07-28T15:39:14.014Z,99078.03
2022-07-28T15:41:44.038Z,99070.81
2022-07-28T15:44:14.125Z,99102.22
2022-07-28T15:46:43.207Z,99127.69
2022-07-28T15:49:15.311Z,99144.22
2022-07-28T15:51:43.395Z,99151.75
2022-07-28T15:54:13.234Z,99210.78
2022-07-28T15:56:42.105Z,99186.03
2022-07-28T15:59:09.916Z,99207.78
2022-07-28T16:01:44.977Z,99238.50
2022-07-28T16:04:13.972Z,99198.66
2022-07-28T16:07:05.671Z,99205.38
2022-07-28T16:09:46.011Z,99226.34
2022-07-28T16:12:16.298Z,99206.41
2022-07-28T16:14:44.504Z,99197.09
2022-07-28T16:17:12.739Z,99213.47
2022-07-28T16:19:50.017Z,99204.25
2022-07-28T16:22:20.361Z,99144.25
2022-07-28T16:24:49.388Z,99153.72
2022-07-28T16:27:17.615Z,99131.91
2022-07-28T16:29:45.497Z,99121.34
2022-07-28T16:32:13.452Z,99124.16
2022-07-28T16:34:41.768Z,99112.09
2022-07-28T16:37:09.970Z,99114.44
2022-07-28T16:39:38.433Z,99103.59
2022-07-28T16:42:06.493Z,99081.75
2022-07-28T16:44:37.689Z,99096.63
2022-07-28T16:47:05.776Z,99080.97
2022-07-28T16:49:33.796Z,99103.47
2022-07-28T16:52:01.666Z,99087.84
2022-07-28T16:54:29.966Z,99108.50
2022-07-28T16:56:58.000Z,99099.75
2022-07-28T16:59:41.922Z,99107.03
2022-07-28T17:02:14.440Z,99131.91
2022-07-28T17:04:42.596Z,99116.09
2022-07-28T17:07:10.432Z,99128.19
2022-07-28T17:09:39.254Z,99104.63
2022-07-28T17:12:08.325Z,99114.59
2022-07-28T17:14:36.708Z,99092.56
2022-07-28T17:17:05.330Z,99088.53
2022-07-28T17:19:33.401Z,99103.72
2022-07-28T17:22:01.444Z,99105.47
2022-07-28T17:24:29.550Z,99076.72
2022-07-28T17:29:45.922Z,99096.31
2022-07-28T17:32:14.255Z,99131.66
2022-07-28T17:34:42.403Z,99114.00
2022-07-28T17:37:10.593Z,99116.13
2022-07-28T17:39:38.768Z,99120.69
2022-07-28T17:42:07.136Z,99126.66
2022-07-28T17:44:35.227Z,99121.47
2022-07-28T17:47:03.841Z,99113.47
2022-07-28T17:49:31.777Z,99106.47
2022-07-28T17:52:00.144Z,99137.94
2022-07-28T17:54:48.054Z,99139.31
2022-07-28T17:57:18.052Z,99122.66
2022-07-28T17:59:51.242Z,99119.19
2022-07-28T18:02:20.283Z,99142.28
2022-07-28T18:04:49.696Z,99141.66
2022-07-28T18:07:18.174Z,99153.13
2022-07-28T18:09:46.315Z,99166.47
2022-07-28T18:12:14.107Z,99157.81
2022-07-28T18:14:42.369Z,99151.66
2022-07-28T18:17:10.065Z,99147.09
2022-07-28T18:19:42.143Z,99166.31
2022-07-28T18:22:13.288Z,99148.91
2022-07-28T18:24:41.390Z,99165.28
2022-07-28T18:27:10.493Z,99160.00
2022-07-28T18:29:38.966Z,99154.94
2022-07-28T18:32:09.665Z,99163.53
2022-07-28T18:34:40.441Z,99160.31
2022-07-28T18:37:08.670Z,99160.72
2022-07-28T18:39:36.535Z,99173.34
2022-07-28T18:42:05.102Z,99171.56
2022-07-28T18:44:33.568Z,99152.13
2022-07-28T18:47:02.062Z,99159.16
2022-07-28T18:49:37.127Z,99177.56
2022-07-28T18:52:06.857Z,99176.81
2022-07-28T18:54:35.303Z,99179.31
2022-07-28T18:57:04.930Z,99167.63
2022-07-28T18:59:33.459Z,99172.63
2022-07-28T19:02:01.719Z,99171.13
2022-07-28T19:04:30.212Z,99172.47
2022-07-28T19:06:58.472Z,99188.16
2022-07-28T19:09:26.247Z,99194.75
2022-07-28T19:11:55.964Z,99204.31
2022-07-28T19:14:24.105Z,99210.25
2022-07-28T19:16:52.250Z,99225.31
2022-07-28T19:19:20.788Z,99223.91
2022-07-28T19:21:48.996Z,99228.66
2022-07-28T19:24:17.905Z,99254.31
2022-07-28T19:26:50.278Z,99260.13
2022-07-28T19:29:18.538Z,99277.63
2022-07-28T19:31:46.724Z,99293.03
2022-07-28T19:34:15.075Z,99292.81
2022-07-28T19:36:43.454Z,99314.66
2022-07-28T19:39:12.300Z,99334.94
2022-07-28T19:41:40.837Z,99352.31
2022-07-28T19:44:09.536Z,99351.53
2022-07-28T19:46:39.406Z,99352.63
2022-07-28T19:49:08.945Z,99360.03
2022-07-28T19:51:37.405Z,99365.84
2022-07-28T19:54:06.299Z,99370.56
2022-07-28T19:56:34.688Z,99388.59
2022-07-28T19:59:03.300Z,99390.41
2022-07-28T20:01:31.529Z,99403.88
2022-07-28T20:04:04.975Z,99423.34
2022-07-28T20:06:33.873Z,99436.97
2022-07-28T20:09:02.939Z,99441.19
2022-07-28T20:11:33.016Z,99451.34
2022-07-28T20:14:01.850Z,99459.13
2022-07-28T20:16:30.262Z,99476.25
2022-07-28T20:18:58.488Z,99484.81
2022-07-28T20:21:26.795Z,99493.25
2022-07-28T20:23:56.289Z,99504.56
2022-07-28T20:26:26.400Z,99508.03
2022-07-28T20:28:58.466Z,99515.53
2022-07-28T20:31:27.141Z,99526.91
2022-07-28T20:33:56.523Z,99537.28
2022-07-28T20:36:29.500Z,99532.41
2022-07-28T20:38:58.183Z,99527.78
2022-07-28T20:41:26.390Z,99541.00
2022-07-28T20:44:26.373Z,99544.03
2022-07-28T20:46:43.015Z,99545.72
2022-07-28T20:49:11.179Z,99558.94
2022-07-28T20:51:39.411Z,99561.50
2022-07-28T20:54:13.647Z,99568.81
2022-07-28T20:56:42.929Z,99580.28
2022-07-28T20:59:11.162Z,99572.81
2022-07-28T21:01:39.803Z,99559.47
2022-07-28T21:04:11.201Z,99575.63
2022-07-28T21:06:39.934Z,99579.34
2022-07-28T21:09:20.454Z,99584.22
2022-07-28T21:11:48.771Z,99581.06
2022-07-28T21:14:17.513Z,99585.13
2022-07-28T21:16:45.978Z,99589.09
2022-07-28T21:19:14.129Z,99597.16
2022-07-28T21:21:42.323Z,99589.66
2022-07-28T21:24:10.496Z,99598.91
2022-07-28T21:26:40.717Z,99616.91
2022-07-28T21:29:12.637Z,99619.75
2022-07-28T21:32:04.811Z,99631.47
2022-07-28T21:34:37.059Z,99634.25
2022-07-28T21:37:06.869Z,99643.47
2022-07-28T21:39:35.884Z,99640.94
2022-07-28T21:42:07.727Z,99642.94
2022-07-28T21:44:37.076Z,99648.28
2022-07-28T21:47:05.601Z,99657.16
2022-07-28T21:49:33.985Z,99658.63
2022-07-28T21:52:02.211Z,99661.22
2022-07-28T21:54:30.418Z,99679.84
2022-07-28T21:56:58.824Z,99684.28
2022-07-28T21:59:27.069Z,99687.56
2022-07-28T22:01:55.390Z,99689.41
2022-07-28T22:04:23.791Z,99683.41
2022-07-28T22:06:54.743Z,99689.56
2022-07-28T22:09:23.233Z,99697.91
2022-07-28T22:11:51.803Z,99705.09
2022-07-28T22:14:20.065Z,99713.91
2022-07-28T22:16:48.366Z,99715.78
2022-07-28T22:19:16.760Z,99737.19
2022-07-28T22:21:44.937Z,99746.97
2022-07-28T22:24:16.720Z,99747.75
2022-07-28T22:26:45.238Z,99739.94
2022-07-28T22:29:13.571Z,99743.59
2022-07-28T22:31:41.761Z,99741.84
2022-07-28T22:34:10.082Z,99737.41
2022-07-28T22:36:38.911Z,99746.97
2022-07-28T22:39:07.560Z,99757.78
2022-07-28T22:41:35.965Z,99762.16
2022-07-28T22:44:04.491Z,99762.66
2022-07-28T22:46:34.342Z,99770.94
2022-07-28T22:49:02.767Z,99772.63
2022-07-28T22:51:31.095Z,99783.81
2022-07-28T22:54:00.517Z,99777.13
2022-07-28T22:56:28.664Z,99767.97
2022-07-28T22:59:05.764Z,99778.97
2022-07-28T23:01:37.563Z,99770.22
2022-07-28T23:04:06.169Z,99766.88
2022-07-28T23:06:35.959Z,99775.88
2022-07-28T23:09:04.552Z,99775.28
2022-07-28T23:11:32.700Z,99770.56
2022-07-28T23:14:00.879Z,99789.94
2022-07-28T23:16:29.210Z,99797.25
2022-07-28T23:18:57.400Z,99806.00
2022-07-28T23:21:25.644Z,99808.41
2022-07-28T23:23:53.934Z,99809.56
2022-07-28T23:26:22.338Z,99818.91
2022-07-28T23:28:50.432Z,99844.97
2022-07-28T23:31:18.704Z,99830.50
2022-07-28T23:33:56.094Z,99852.88
2022-07-28T23:36:27.792Z,99846.50
2022-07-28T23:38:58.286Z,99846.31
2022-07-28T23:41:27.290Z,99844.63
2022-07-28T23:43:55.624Z,99833.28
2022-07-28T23:46:23.874Z,99827.44
2022-07-28T23:48:52.338Z,99832.25
2022-07-28T23:51:21.895Z,99818.81
2022-07-28T23:53:55.894Z,99825.75
2022-07-28T23:56:44.943Z,99821.25
2022-07-28T23:59:33.409Z,99819.69
